Time;durP1;ratioP1;P1;durP2;ratioP2;P2;SDS_P1;SDS_P2;PMS_P1;PMS_P2;Temp;Humidity;BMP_temperature;BMP_pressure;BME280_temperature;BME280_humidity;BME280_pressure;Samples;Min_cycle;Max_cycle;Signal;HPM_P1;HPM_P2
2021/11/04 00:00:34;;;;;;;;;;;13.80;59.90;;;;;;6275495;22;20261;-65
2021/11/04 00:03:00;;;;;;;;;;;13.80;59.40;;;;;;6273792;22;20273;-66
2021/11/04 00:05:26;;;;;;;;;;;13.80;59.30;;;;;;6275184;22;19905;-66
2021/11/04 00:07:52;;;;;;;;;;;13.80;59.30;;;;;;6276776;22;20311;-66
2021/11/04 00:10:20;;;;;;;;;;;13.80;59.40;;;;;;6277545;22;19899;-66
2021/11/04 00:12:46;;;;;;;;;;;13.80;59.50;;;;;;6277576;22;19899;-67
2021/11/04 00:15:12;;;;;;;;;;;13.80;59.60;;;;;;6277473;22;19907;-66
2021/11/04 00:17:38;;;;;;;;;;;13.80;59.70;;;;;;6277351;22;19899;-66
2021/11/04 00:20:05;;;;;;;;;;;13.80;59.60;;;;;;6277370;22;20302;-67
2021/11/04 00:22:30;;;;;;;;;;;13.80;59.60;;;;;;6277433;22;19956;-67
2021/11/04 00:25:05;;;;;;;;;;;13.80;59.60;;;;;;6275721;22;19982;-66
2021/11/04 00:27:31;;;;;;;;;;;13.80;59.60;;;;;;6277340;22;19899;-66
2021/11/04 00:29:57;;;;;;;;;;;13.80;59.70;;;;;;6277169;22;19903;-66
2021/11/04 00:32:22;;;;;;;;;;;13.80;59.70;;;;;;6277226;22;19903;-66
2021/11/04 00:34:48;;;;;;;;;;;13.70;59.80;;;;;;6277235;22;20266;-65
2021/11/04 00:37:13;;;;;;;;;;;13.70;59.80;;;;;;6277191;22;19899;-65
2021/11/04 00:39:39;;;;;;;;;;;13.70;59.70;;;;;;6277113;22;19985;-66
2021/11/04 00:42:05;;;;;;;;;;;13.70;59.80;;;;;;6275383;22;19899;-66
2021/11/04 00:44:31;;;;;;;;;;;13.70;59.80;;;;;;6275619;22;19986;-66
2021/11/04 00:46:56;;;;;;;;;;;13.70;59.80;;;;;;6277130;22;19964;-65
2021/11/04 00:49:22;;;;;;;;;;;13.70;59.90;;;;;;6276999;22;20315;-66
2021/11/04 00:51:47;;;;;;;;;;;13.60;59.80;;;;;;6277017;22;19974;-66
2021/11/04 00:54:13;;;;;;;;;;;13.70;60.00;;;;;;6276986;22;19926;-66
2021/11/04 00:56:39;;;;;;;;;;;13.70;60.00;;;;;;6276965;22;20295;-68
2021/11/04 00:59:04;;;;;;;;;;;13.70;60.00;;;;;;6276962;22;19926;-67
2021/11/04 01:01:30;;;;;;;;;;;13.70;60.00;;;;;;6276887;22;20235;-67
2021/11/04 01:03:55;;;;;;;;;;;13.70;60.00;;;;;;6277107;22;20230;-68
2021/11/04 01:06:22;;;;;;;;;;;13.70;59.90;;;;;;6276857;22;19970;-67
2021/11/04 01:08:51;;;;;;;;;;;13.70;59.90;;;;;;6277239;22;19974;-67
2021/11/04 01:11:17;;;;;;;;;;;13.70;59.90;;;;;;6276888;22;19929;-67
2021/11/04 01:13:43;;;;;;;;;;;13.60;59.90;;;;;;6276643;22;19911;-67
2021/11/04 01:16:08;;;;;;;;;;;13.70;60.00;;;;;;6276817;22;19899;-67
2021/11/04 01:18:34;;;;;;;;;;;13.60;59.90;;;;;;6276288;22;19899;-67
2021/11/04 01:20:59;;;;;;;;;;;13.60;59.90;;;;;;6276731;22;20265;-67
2021/11/04 01:23:25;;;;;;;;;;;13.60;59.90;;;;;;6275052;22;19986;-67
2021/11/04 01:25:51;;;;;;;;;;;13.60;59.90;;;;;;6276863;22;20318;-68
2021/11/04 01:28:17;;;;;;;;;;;13.60;60.00;;;;;;6276876;22;19899;-67
2021/11/04 01:30:43;;;;;;;;;;;13.60;60.00;;;;;;6276784;22;19903;-66
2021/11/04 01:33:09;;;;;;;;;;;13.60;60.10;;;;;;6276834;22;20266;-66
2021/11/04 01:35:36;;;;;;;;;;;13.60;60.10;;;;;;6276387;22;19907;-66
2021/11/04 01:38:03;;;;;;;;;;;13.60;60.10;;;;;;6276663;22;19899;-67
2021/11/04 01:40:29;;;;;;;;;;;13.60;60.00;;;;;;6276589;22;20006;-67
2021/11/04 01:42:55;;;;;;;;;;;13.60;60.00;;;;;;6276521;22;19899;-67
2021/11/04 01:45:20;;;;;;;;;;;13.60;60.00;;;;;;6275806;22;19906;-66
2021/11/04 01:47:46;;;;;;;;;;;13.60;60.00;;;;;;6276668;22;19900;-67
2021/11/04 01:50:16;;;;;;;;;;;13.60;60.00;;;;;;6276687;22;19945;-68
2021/11/04 01:52:45;;;;;;;;;;;13.50;59.90;;;;;;6275225;22;19906;-67
2021/11/04 01:55:12;;;;;;;;;;;13.60;60.10;;;;;;6276517;22;19974;-66
2021/11/04 01:57:38;;;;;;;;;;;13.60;60.10;;;;;;6275004;22;19900;-68
2021/11/04 02:00:04;;;;;;;;;;;13.60;60.10;;;;;;6276694;22;19910;-67
2021/11/04 02:02:33;;;;;;;;;;;13.60;60.10;;;;;;6276532;22;20006;-66
2021/11/04 02:05:00;;;;;;;;;;;13.60;60.10;;;;;;6276369;22;20253;-66
2021/11/04 02:07:28;;;;;;;;;;;13.50;60.00;;;;;;6276440;22;19903;-66
2021/11/04 02:10:03;;;;;;;;;;;13.50;60.00;;;;;;6276061;22;20334;-67
2021/11/04 02:12:34;;;;;;;;;;;13.50;60.00;;;;;;6276150;22;19899;-66
2021/11/04 02:15:01;;;;;;;;;;;13.50;60.20;;;;;;6275865;22;19918;-67
2021/11/04 02:17:27;;;;;;;;;;;13.50;60.20;;;;;;6276180;22;19899;-67
2021/11/04 02:19:56;;;;;;;;;;;13.50;60.30;;;;;;6276072;22;19903;-66
2021/11/04 02:22:27;;;;;;;;;;;13.50;60.30;;;;;;6276148;22;19978;-66
2021/11/04 02:25:11;;;;;;;;;;;13.60;60.30;;;;;;6275944;22;19949;-67
2021/11/04 02:27:47;;;;;;;;;;;13.50;60.20;;;;;;6276102;22;19906;-66
2021/11/04 02:30:13;;;;;;;;;;;13.50;60.20;;;;;;6275471;22;20283;-66
2021/11/04 02:32:39;;;;;;;;;;;13.50;61.00;;;;;;6276158;22;19922;-67
2021/11/04 02:35:05;;;;;;;;;;;13.50;60.20;;;;;;6275945;22;19953;-66
2021/11/04 02:37:31;;;;;;;;;;;13.50;60.20;;;;;;6275835;22;20256;-66
2021/11/04 02:39:58;;;;;;;;;;;13.50;60.20;;;;;;6275508;22;19907;-67
2021/11/04 02:42:24;;;;;;;;;;;13.60;60.30;;;;;;6275916;22;19899;-66
2021/11/04 02:44:50;;;;;;;;;;;13.60;60.20;;;;;;6275981;22;19895;-66
2021/11/04 02:47:15;;;;;;;;;;;13.60;60.20;;;;;;6276097;22;19963;-67
2021/11/04 02:49:43;;;;;;;;;;;13.60;60.20;;;;;;6275658;22;19974;-66
2021/11/04 02:52:09;;;;;;;;;;;13.60;60.20;;;;;;6276022;22;19900;-66
2021/11/04 02:54:34;;;;;;;;;;;13.60;60.20;;;;;;6276083;22;19899;-66
2021/11/04 02:57:00;;;;;;;;;;;13.60;60.20;;;;;;6275784;22;19923;-66
2021/11/04 02:59:26;;;;;;;;;;;13.60;60.30;;;;;;6274350;22;20324;-67
2021/11/04 03:01:53;;;;;;;;;;;13.60;60.20;;;;;;6275767;22;19899;-67
2021/11/04 03:04:19;;;;;;;;;;;13.60;60.20;;;;;;6275752;22;19900;-66
2021/11/04 03:06:45;;;;;;;;;;;13.60;60.20;;;;;;6275847;22;20291;-67
2021/11/04 03:09:11;;;;;;;;;;;13.60;60.20;;;;;;6275877;22;19903;-66
2021/11/04 03:11:36;;;;;;;;;;;13.60;60.10;;;;;;6275606;22;20276;-67
2021/11/04 03:14:02;;;;;;;;;;;13.60;60.00;;;;;;6275222;22;19915;-67
2021/11/04 03:16:30;;;;;;;;;;;13.60;60.00;;;;;;6275670;22;19899;-66
2021/11/04 03:18:56;;;;;;;;;;;13.60;60.00;;;;;;6275925;22;19989;-66
2021/11/04 03:21:22;;;;;;;;;;;13.60;60.10;;;;;;6275583;22;19998;-66
2021/11/04 03:23:48;;;;;;;;;;;13.60;60.10;;;;;;6275484;22;19934;-66
2021/11/04 03:26:15;;;;;;;;;;;13.60;60.20;;;;;;6275477;22;20326;-66
2021/11/04 03:28:41;;;;;;;;;;;13.60;60.20;;;;;;6275364;22;19899;-66
2021/11/04 03:31:07;;;;;;;;;;;13.60;60.30;;;;;;6275424;22;19914;-66
2021/11/04 03:33:33;;;;;;;;;;;13.60;60.20;;;;;;6275475;22;19952;-65
2021/11/04 03:35:59;;;;;;;;;;;13.60;60.30;;;;;;6275449;22;20322;-67
2021/11/04 03:38:27;;;;;;;;;;;13.60;60.30;;;;;;6274830;22;19899;-67
2021/11/04 03:40:55;;;;;;;;;;;13.60;60.30;;;;;;6275282;22;19907;-66
2021/11/04 03:43:21;;;;;;;;;;;13.60;60.40;;;;;;6275353;22;19900;-66
2021/11/04 03:45:47;;;;;;;;;;;13.60;60.40;;;;;;6274116;22;19907;-65
2021/11/04 03:48:12;;;;;;;;;;;13.60;60.40;;;;;;6274703;22;19899;-65
2021/11/04 03:50:39;;;;;;;;;;;13.60;60.40;;;;;;6275205;22;19899;-67
2021/11/04 03:53:05;;;;;;;;;;;13.60;60.50;;;;;;6275152;22;20242;-67
2021/11/04 03:55:32;;;;;;;;;;;13.60;60.40;;;;;;6275161;22;19978;-67
2021/11/04 03:57:59;;;;;;;;;;;13.50;60.40;;;;;;6275188;22;19899;-68
2021/11/04 04:00:25;;;;;;;;;;;13.50;60.30;;;;;;6274947;22;19903;-67
2021/11/04 04:02:51;;;;;;;;;;;13.50;60.40;;;;;;6275152;22;19903;-67
2021/11/04 04:05:25;;;;;;;;;;;13.60;60.40;;;;;;6275424;22;19989;-68
2021/11/04 04:07:51;;;;;;;;;;;13.50;60.40;;;;;;6275100;22;19922;-67
2021/11/04 04:10:16;;;;;;;;;;;13.60;60.50;;;;;;6275024;22;20358;-67
2021/11/04 04:12:42;;;;;;;;;;;13.60;60.50;;;;;;6274570;22;19900;-67
2021/11/04 04:15:09;;;;;;;;;;;13.50;60.60;;;;;;6275507;22;20010;-67
2021/11/04 04:17:34;;;;;;;;;;;13.60;60.60;;;;;;6275309;22;20331;-67
2021/11/04 04:20:00;;;;;;;;;;;13.60;60.50;;;;;;6274379;22;19907;-66
2021/11/04 04:22:26;;;;;;;;;;;13.50;60.50;;;;;;6275463;22;20252;-68
2021/11/04 04:24:51;;;;;;;;;;;13.50;60.30;;;;;;6274747;22;19900;-68
2021/11/04 04:27:17;;;;;;;;;;;13.50;60.30;;;;;;6275202;22;20251;-67
2021/11/04 04:29:42;;;;;;;;;;;13.50;60.30;;;;;;6274671;22;19978;-67
2021/11/04 04:32:08;;;;;;;;;;;13.50;60.30;;;;;;6275140;22;19907;-67
2021/11/04 04:34:34;;;;;;;;;;;13.50;60.20;;;;;;6274957;22;19918;-66
2021/11/04 04:36:59;;;;;;;;;;;13.40;60.10;;;;;;6275234;22;19902;-67
2021/11/04 04:39:25;;;;;;;;;;;13.40;60.10;;;;;;6274299;22;19903;-67
2021/11/04 04:41:51;;;;;;;;;;;13.30;60.20;;;;;;6274825;22;20283;-67
2021/11/04 04:44:16;;;;;;;;;;;13.30;60.30;;;;;;6274868;22;19937;-67
2021/11/04 04:46:42;;;;;;;;;;;13.30;60.60;;;;;;6275075;22;19903;-68
2021/11/04 04:49:08;;;;;;;;;;;13.20;60.70;;;;;;6274016;22;19899;-67
2021/11/04 04:51:34;;;;;;;;;;;13.20;61.00;;;;;;6275181;22;19900;-67
2021/11/04 04:54:00;;;;;;;;;;;13.10;61.40;;;;;;6275777;22;20329;-69
2021/11/04 04:56:25;;;;;;;;;;;13.00;61.80;;;;;;6276422;22;19899;-69
2021/11/04 04:58:51;;;;;;;;;;;12.90;62.20;;;;;;6277096;22;20326;-69
2021/11/04 05:01:16;;;;;;;;;;;12.90;62.50;;;;;;6276986;22;19903;-69
2021/11/04 05:03:42;;;;;;;;;;;12.80;62.70;;;;;;6276763;22;19899;-71
2021/11/04 05:06:08;;;;;;;;;;;12.70;63.20;;;;;;6275485;22;19899;-73
2021/11/04 05:08:33;;;;;;;;;;;12.60;63.60;;;;;;6276572;22;19934;-74
2021/11/04 05:10:59;;;;;;;;;;;12.50;64.10;;;;;;6275212;22;20281;-75
2021/11/04 05:13:24;;;;;;;;;;;12.40;64.60;;;;;;6276679;22;19911;-70
2021/11/04 05:15:50;;;;;;;;;;;12.30;65.10;;;;;;6276777;22;19938;-66
2021/11/04 05:18:15;;;;;;;;;;;12.30;65.50;;;;;;6276436;22;19982;-67
2021/11/04 05:20:41;;;;;;;;;;;12.20;65.90;;;;;;6276139;22;19903;-67
2021/11/04 05:23:07;;;;;;;;;;;12.20;66.20;;;;;;6274378;22;19933;-67
2021/11/04 05:25:32;;;;;;;;;;;12.10;66.50;;;;;;6276575;22;19934;-68
2021/11/04 05:27:58;;;;;;;;;;;12.10;66.80;;;;;;6276369;22;20339;-67
2021/11/04 05:30:24;;;;;;;;;;;12.00;67.00;;;;;;6276139;22;19913;-69
2021/11/04 05:32:49;;;;;;;;;;;11.90;67.30;;;;;;6276219;22;19923;-67
2021/11/04 05:35:17;;;;;;;;;;;11.80;67.80;;;;;;6276494;22;19931;-67
2021/11/04 05:37:43;;;;;;;;;;;11.70;68.00;;;;;;6276087;22;19923;-67
2021/11/04 05:40:09;;;;;;;;;;;11.60;67.90;;;;;;6275608;22;19952;-67
2021/11/04 05:42:34;;;;;;;;;;;11.50;68.10;;;;;;6276393;22;19981;-68
2021/11/04 05:45:00;;;;;;;;;;;11.40;68.10;;;;;;6276201;22;19927;-67
2021/11/04 05:47:26;;;;;;;;;;;11.30;68.20;;;;;;6275984;22;19899;-67
2021/11/04 05:49:51;;;;;;;;;;;11.20;68.50;;;;;;6275938;22;19970;-67
2021/11/04 05:52:17;;;;;;;;;;;11.20;68.70;;;;;;6276279;22;19910;-68
2021/11/04 05:54:43;;;;;;;;;;;11.10;68.80;;;;;;6276204;22;19895;-68
2021/11/04 05:57:09;;;;;;;;;;;11.00;68.70;;;;;;6276383;22;19899;-68
2021/11/04 05:59:34;;;;;;;;;;;10.90;68.80;;;;;;6275946;22;19899;-67
2021/11/04 06:02:00;;;;;;;;;;;10.90;68.90;;;;;;6276358;22;19906;-69
2021/11/04 06:04:32;;;;;;;;;;;10.80;69.00;;;;;;6275946;22;20013;-68
2021/11/04 06:06:57;;;;;;;;;;;10.80;69.20;;;;;;6276166;22;20261;-68
2021/11/04 06:09:23;;;;;;;;;;;10.70;69.30;;;;;;6275377;22;19982;-68
2021/11/04 06:11:50;;;;;;;;;;;10.60;69.20;;;;;;6276088;22;19949;-69
2021/11/04 06:14:16;;;;;;;;;;;10.60;69.50;;;;;;6275246;22;19919;-69
2021/11/04 06:16:41;;;;;;;;;;;10.50;69.50;;;;;;6275673;22;19899;-68
2021/11/04 06:19:07;;;;;;;;;;;10.40;69.40;;;;;;6275426;22;19922;-69
2021/11/04 06:21:33;;;;;;;;;;;10.40;69.60;;;;;;6275295;22;19957;-69
2021/11/04 06:23:59;;;;;;;;;;;10.40;69.50;;;;;;6274433;22;19978;-68
2021/11/04 06:26:24;;;;;;;;;;;10.30;69.50;;;;;;6274475;22;19899;-68
2021/11/04 06:28:50;;;;;;;;;;;10.30;69.70;;;;;;6274322;22;19944;-68
2021/11/04 06:31:15;;;;;;;;;;;10.30;69.90;;;;;;6276034;22;19899;-68
2021/11/04 06:33:41;;;;;;;;;;;10.20;69.80;;;;;;6276130;22;19899;-68
2021/11/04 06:36:06;;;;;;;;;;;10.10;69.60;;;;;;6276339;22;19899;-67
2021/11/04 06:38:34;;;;;;;;;;;10.10;69.70;;;;;;6276403;22;19949;-68
2021/11/04 06:41:00;;;;;;;;;;;10.10;69.90;;;;;;6276440;22;19903;-67
2021/11/04 06:43:27;;;;;;;;;;;10.10;70.00;;;;;;6274644;22;19949;-68
2021/11/04 06:45:53;;;;;;;;;;;10.10;70.10;;;;;;6276222;22;19940;-68
2021/11/04 06:48:22;;;;;;;;;;;10.00;70.00;;;;;;6276004;22;19899;-68
2021/11/04 06:50:49;;;;;;;;;;;10.00;70.00;;;;;;6276214;22;20226;-69
2021/11/04 06:53:15;;;;;;;;;;;10.00;70.00;;;;;;6276420;22;19899;-69
2021/11/04 06:55:43;;;;;;;;;;;10.00;70.20;;;;;;6274396;22;19899;-68
2021/11/04 06:58:15;;;;;;;;;;;10.00;70.20;;;;;;6275805;22;19945;-69
2021/11/04 07:00:45;;;;;;;;;;;10.00;70.10;;;;;;6274584;22;20003;-68
2021/11/04 07:03:15;;;;;;;;;;;10.00;70.00;;;;;;6276171;22;20021;-69
2021/11/04 07:05:44;;;;;;;;;;;10.00;70.10;;;;;;6276254;22;19899;-68
2021/11/04 07:08:19;;;;;;;;;;;9.90;69.80;;;;;;6276368;22;19899;-69
2021/11/04 07:10:46;;;;;;;;;;;9.90;69.50;;;;;;6276675;22;19899;-68
2021/11/04 07:13:13;;;;;;;;;;;9.90;69.60;;;;;;6276187;22;19907;-68
2021/11/04 07:15:40;;;;;;;;;;;9.90;69.80;;;;;;6275649;22;19974;-67
2021/11/04 07:18:07;;;;;;;;;;;10.00;69.80;;;;;;6276414;22;19945;-68
2021/11/04 07:20:33;;;;;;;;;;;10.00;70.00;;;;;;6276250;22;20325;-68
2021/11/04 07:23:02;;;;;;;;;;;10.00;70.00;;;;;;6276348;22;19903;-68
2021/11/04 07:25:27;;;;;;;;;;;10.10;70.00;;;;;;6276105;22;19921;-67
2021/11/04 07:27:53;;;;;;;;;;;10.10;69.50;;;;;;6276038;22;20311;-69
2021/11/04 07:30:20;;;;;;;;;;;10.10;69.70;;;;;;6275924;22;19899;-69
2021/11/04 07:32:48;;;;;;;;;;;10.20;69.90;;;;;;6275991;22;19931;-69
2021/11/04 07:35:18;;;;;;;;;;;10.20;69.90;;;;;;6276436;22;19965;-67
2021/11/04 07:37:44;;;;;;;;;;;10.30;69.60;;;;;;6276177;22;19938;-68
2021/11/04 07:40:10;;;;;;;;;;;10.30;69.10;;;;;;6274236;22;19907;-68
2021/11/04 07:42:37;;;;;;;;;;;10.30;69.20;;;;;;6275797;22;19931;-68
2021/11/04 07:45:03;;;;;;;;;;;10.30;69.20;;;;;;6275216;22;19948;-68
2021/11/04 07:47:28;;;;;;;;;;;10.30;68.80;;;;;;6274290;22;19899;-68
2021/11/04 07:49:54;;;;;;;;;;;10.30;68.60;;;;;;6275484;22;19895;-67
2021/11/04 07:52:20;;;;;;;;;;;10.30;68.20;;;;;;6276292;22;19974;-66
2021/11/04 07:54:45;;;;;;;;;;;10.30;68.10;;;;;;6275773;22;19914;-67
2021/11/04 07:57:11;;;;;;;;;;;10.30;67.80;;;;;;6276258;22;19906;-67
2021/11/04 07:59:37;;;;;;;;;;;10.30;67.90;;;;;;6276090;22;20362;-68
2021/11/04 08:02:03;;;;;;;;;;;10.40;68.00;;;;;;6276286;22;20212;-67
2021/11/04 08:04:29;;;;;;;;;;;10.40;67.70;;;;;;6275483;22;19918;-68
2021/11/04 08:06:56;;;;;;;;;;;10.40;67.20;;;;;;6276197;22;19905;-69
2021/11/04 08:09:21;;;;;;;;;;;10.40;67.10;;;;;;6275963;22;19906;-68
2021/11/04 08:11:47;;;;;;;;;;;10.50;67.20;;;;;;6276579;22;19903;-66
2021/11/04 08:14:13;;;;;;;;;;;10.50;67.20;;;;;;6275577;22;20247;-69
2021/11/04 08:16:38;;;;;;;;;;;10.50;66.90;;;;;;6276057;22;19930;-68
2021/11/04 08:19:04;;;;;;;;;;;10.60;66.90;;;;;;6274878;22;19906;-68
2021/11/04 08:21:30;;;;;;;;;;;10.60;66.80;;;;;;6274053;22;19925;-69
2021/11/04 08:23:55;;;;;;;;;;;10.60;67.00;;;;;;6274234;22;19974;-69
2021/11/04 08:26:21;;;;;;;;;;;10.70;67.10;;;;;;6275210;22;20366;-69
2021/11/04 08:28:47;;;;;;;;;;;10.70;67.00;;;;;;6276894;22;19907;-68
2021/11/04 08:31:12;;;;;;;;;;;10.70;66.70;;;;;;6278255;22;19899;-69
2021/11/04 08:33:38;;;;;;;;;;;10.70;66.60;;;;;;6275821;22;20283;-69
2021/11/04 08:36:04;;;;;;;;;;;10.70;66.70;;;;;;6277897;22;20300;-69
2021/11/04 08:38:29;;;;;;;;;;;10.70;66.20;;;;;;6278104;22;19964;-69
2021/11/04 08:40:55;;;;;;;;;;;10.70;65.90;;;;;;6277910;22;19903;-69
2021/11/04 08:43:20;;;;;;;;;;;10.80;66.10;;;;;;6278012;22;20234;-68
2021/11/04 08:45:46;;;;;;;;;;;10.80;66.00;;;;;;6276424;22;19923;-68
2021/11/04 08:48:14;;;;;;;;;;;10.80;66.00;;;;;;6276369;22;19899;-69
2021/11/04 08:50:40;;;;;;;;;;;10.80;66.00;;;;;;6277915;22;19895;-68
2021/11/04 08:53:05;;;;;;;;;;;10.90;65.80;;;;;;6276025;22;19899;-68
2021/11/04 08:55:31;;;;;;;;;;;10.90;65.80;;;;;;6277789;22;19974;-68
2021/11/04 08:57:57;;;;;;;;;;;10.90;65.60;;;;;;6278251;22;20373;-69
2021/11/04 09:00:22;;;;;;;;;;;10.90;65.60;;;;;;6278473;22;19907;-69
2021/11/04 09:02:49;;;;;;;;;;;10.90;65.10;;;;;;6276497;22;19927;-69
2021/11/04 09:05:15;;;;;;;;;;;10.90;65.10;;;;;;6277804;22;20234;-69
2021/11/04 09:07:40;;;;;;;;;;;10.90;65.00;;;;;;6277434;22;19926;-70
2021/11/04 09:10:07;;;;;;;;;;;10.90;65.00;;;;;;6277970;22;19933;-69
2021/11/04 09:12:34;;;;;;;;;;;10.90;65.00;;;;;;6277982;22;20239;-69
2021/11/04 09:15:00;;;;;;;;;;;10.90;65.00;;;;;;6277416;22;19911;-69
2021/11/04 09:17:26;;;;;;;;;;;11.00;65.10;;;;;;6275211;22;19899;-67
2021/11/04 09:19:51;;;;;;;;;;;10.90;65.00;;;;;;6275089;22;19961;-68
2021/11/04 09:22:19;;;;;;;;;;;11.00;65.20;;;;;;6276030;22;19899;-67
2021/11/04 09:24:45;;;;;;;;;;;11.00;65.20;;;;;;6275015;22;19899;-68
2021/11/04 09:27:11;;;;;;;;;;;11.00;65.10;;;;;;6276072;22;19949;-67
2021/11/04 09:29:38;;;;;;;;;;;11.00;65.10;;;;;;6275337;22;19927;-68
2021/11/04 09:32:06;;;;;;;;;;;11.00;65.10;;;;;;6276637;22;20307;-69
2021/11/04 09:34:32;;;;;;;;;;;11.00;65.10;;;;;;6276138;22;19899;-68
2021/11/04 09:36:58;;;;;;;;;;;11.10;65.30;;;;;;6276153;22;19902;-72
2021/11/04 09:39:23;;;;;;;;;;;11.10;65.10;;;;;;6275637;22;19931;-67
2021/11/04 09:41:49;;;;;;;;;;;11.10;64.90;;;;;;6276235;22;19953;-67
2021/11/04 09:44:17;;;;;;;;;;;11.10;64.60;;;;;;6276476;22;19931;-67
2021/11/04 09:46:43;;;;;;;;;;;11.10;64.40;;;;;;6276476;22;19899;-66
2021/11/04 09:49:09;;;;;;;;;;;11.10;64.50;;;;;;6276215;22;19900;-67
2021/11/04 09:51:35;;;;;;;;;;;11.10;64.50;;;;;;6276375;22;19899;-67
2021/11/04 09:54:01;;;;;;;;;;;11.20;64.70;;;;;;6276614;22;19903;-67
2021/11/04 09:56:27;;;;;;;;;;;11.10;64.50;;;;;;6276317;22;19906;-67
2021/11/04 09:58:53;;;;;;;;;;;11.20;64.60;;;;;;6273158;22;20320;-68
2021/11/04 10:01:21;;;;;;;;;;;11.20;64.60;;;;;;6276423;22;19903;-67
2021/11/04 10:03:47;;;;;;;;;;;11.20;64.60;;;;;;6276446;22;19978;-68
2021/11/04 10:06:19;;;;;;;;;;;11.20;64.70;;;;;;6276409;22;19922;-67
2021/11/04 10:08:48;;;;;;;;;;;11.30;64.90;;;;;;6276400;22;20319;-67
2021/11/04 10:11:16;;;;;;;;;;;11.40;65.20;;;;;;6276364;22;19903;-67
2021/11/04 10:13:41;;;;;;;;;;;11.50;65.40;;;;;;6276131;22;19907;-66
2021/11/04 10:16:08;;;;;;;;;;;11.60;65.40;;;;;;6275975;22;19930;-65
2021/11/04 10:18:48;;;;;;;;;;;11.80;65.60;;;;;;6276204;22;19903;-65
2021/11/04 10:21:14;;;;;;;;;;;11.90;65.70;;;;;;6276171;22;19934;-67
2021/11/04 10:23:42;;;;;;;;;;;12.00;65.50;;;;;;6276005;22;19922;-66
2021/11/04 10:26:18;;;;;;;;;;;12.10;65.40;;;;;;6274337;22;19990;-66
2021/11/04 10:28:45;;;;;;;;;;;12.20;65.00;;;;;;6274936;22;19961;-67
2021/11/04 10:31:13;;;;;;;;;;;12.30;64.60;;;;;;6275058;22;20226;-66
2021/11/04 10:33:39;;;;;;;;;;;12.40;64.20;;;;;;6274325;22;19899;-67
2021/11/04 10:36:05;;;;;;;;;;;12.40;63.90;;;;;;6276167;22;19994;-66
2021/11/04 10:38:44;;;;;;;;;;;12.40;63.80;;;;;;6276028;22;19934;-66
2021/11/04 10:41:11;;;;;;;;;;;12.50;63.00;;;;;;6275881;22;19903;-66
2021/11/04 10:43:38;;;;;;;;;;;12.50;62.70;;;;;;6276187;22;19910;-66
2021/11/04 10:46:05;;;;;;;;;;;12.50;62.70;;;;;;6276075;22;19903;-67
2021/11/04 10:48:31;;;;;;;;;;;12.60;62.60;;;;;;6275923;22;20233;-67
2021/11/04 10:50:57;;;;;;;;;;;12.60;62.60;;;;;;6275339;22;19975;-67
2021/11/04 10:53:23;;;;;;;;;;;12.60;62.10;;;;;;6275845;22;19931;-68
2021/11/04 10:55:50;;;;;;;;;;;12.70;62.30;;;;;;6275862;22;19911;-68
2021/11/04 10:58:26;;;;;;;;;;;12.70;62.40;;;;;;6276014;22;19903;-68
2021/11/04 11:00:51;;;;;;;;;;;12.80;62.40;;;;;;6275836;22;20386;-68
2021/11/04 11:03:17;;;;;;;;;;;12.90;62.30;;;;;;6275925;22;19938;-67
2021/11/04 11:05:43;;;;;;;;;;;12.90;61.80;;;;;;6275920;22;20012;-66
2021/11/04 11:08:11;;;;;;;;;;;12.90;61.60;;;;;;6275862;22;20289;-67
2021/11/04 11:10:38;;;;;;;;;;;12.90;61.70;;;;;;6275917;22;19945;-68
2021/11/04 11:13:04;;;;;;;;;;;12.90;61.10;;;;;;6275618;22;19942;-67
2021/11/04 11:15:32;;;;;;;;;;;12.90;61.60;;;;;;6275718;22;20377;-67
2021/11/04 11:17:57;;;;;;;;;;;12.90;61.80;;;;;;6275658;22;19907;-68
2021/11/04 11:20:24;;;;;;;;;;;13.00;61.80;;;;;;6275774;22;19903;-68
2021/11/04 11:22:49;;;;;;;;;;;13.00;61.80;;;;;;6275619;22;19906;-68
2021/11/04 11:25:15;;;;;;;;;;;13.10;61.60;;;;;;6275454;22;19982;-68
2021/11/04 11:27:42;;;;;;;;;;;13.20;60.70;;;;;;6275107;22;19936;-68
2021/11/04 11:30:08;;;;;;;;;;;13.20;60.50;;;;;;6275470;22;20380;-68
2021/11/04 11:32:34;;;;;;;;;;;13.20;59.70;;;;;;6274801;22;19907;-68
2021/11/04 11:35:16;;;;;;;;;;;13.20;60.10;;;;;;6275003;22;19899;-68
2021/11/04 11:37:54;;;;;;;;;;;13.30;60.40;;;;;;6275566;22;19914;-69
2021/11/04 11:40:20;;;;;;;;;;;13.30;60.50;;;;;;6274970;22;19903;-69
2021/11/04 11:43:09;;;;;;;;;;;13.40;60.00;;;;;;6275288;22;20330;-69
2021/11/04 11:45:35;;;;;;;;;;;13.40;59.80;;;;;;6273533;22;19906;-69
2021/11/04 11:48:20;;;;;;;;;;;13.50;60.00;;;;;;6273543;22;19899;-69
2021/11/04 11:50:47;;;;;;;;;;;13.60;59.90;;;;;;6273765;22;19900;-67
2021/11/04 11:53:20;;;;;;;;;;;13.70;59.30;;;;;;6275440;22;20172;-68
2021/11/04 11:55:47;;;;;;;;;;;13.70;59.20;;;;;;6275234;22;19899;-68
2021/11/04 11:58:13;;;;;;;;;;;13.70;59.30;;;;;;6273441;22;19899;-68
2021/11/04 12:00:58;;;;;;;;;;;13.80;59.10;;;;;;6273908;22;19906;-68
2021/11/04 12:06:05;;;;;;;;;;;13.80;58.60;;;;;;6273654;22;19899;-69
2021/11/04 12:08:34;;;;;;;;;;;13.90;58.70;;;;;;6273685;22;19914;-69
2021/11/04 12:11:01;;;;;;;;;;;13.90;58.70;;;;;;6274207;22;19903;-69
2021/11/04 12:13:40;;;;;;;;;;;14.00;58.80;;;;;;6273465;22;19907;-68
2021/11/04 12:16:06;;;;;;;;;;;14.00;58.70;;;;;;6272866;22;20390;-68
2021/11/04 12:18:31;;;;;;;;;;;14.20;59.00;;;;;;6274042;22;19925;-67
2021/11/04 12:20:57;;;;;;;;;;;14.30;59.10;;;;;;6274219;22;19998;-69
2021/11/04 12:23:49;;;;;;;;;;;14.40;59.10;;;;;;6272938;22;19914;-68
2021/11/04 12:26:26;;;;;;;;;;;14.40;58.80;;;;;;6272448;22;19899;-69
2021/11/04 12:28:51;;;;;;;;;;;14.50;58.30;;;;;;6272024;22;19925;-69
2021/11/04 12:31:18;;;;;;;;;;;14.60;58.00;;;;;;6273396;22;19911;-68
2021/11/04 12:33:44;;;;;;;;;;;14.60;57.90;;;;;;6273195;22;19899;-68
2021/11/04 12:36:09;;;;;;;;;;;14.60;57.90;;;;;;6273729;22;20341;-68
2021/11/04 12:38:42;;;;;;;;;;;14.70;57.90;;;;;;6271788;22;19949;-70
2021/11/04 12:41:09;;;;;;;;;;;14.70;57.80;;;;;;6273208;22;19986;-68
2021/11/04 12:43:35;;;;;;;;;;;14.70;57.90;;;;;;6274424;22;20270;-74
2021/11/04 12:46:10;;;;;;;;;;;14.80;57.40;;;;;;6274163;22;20234;-70
2021/11/04 12:48:49;;;;;;;;;;;14.70;56.60;;;;;;6273643;22;19929;-70
2021/11/04 12:51:16;;;;;;;;;;;14.70;56.70;;;;;;6273979;22;19910;-70
2021/11/04 12:53:55;;;;;;;;;;;14.60;56.00;;;;;;6274210;22;19899;-69
2021/11/04 12:56:22;;;;;;;;;;;14.60;56.10;;;;;;6274031;22;19903;-70
2021/11/04 12:58:51;;;;;;;;;;;14.50;55.60;;;;;;6271998;22;19899;-71
2021/11/04 13:01:17;;;;;;;;;;;14.50;56.20;;;;;;6273790;22;19907;-71
2021/11/04 13:03:43;;;;;;;;;;;14.40;55.70;;;;;;6273847;22;19903;-69
2021/11/04 13:06:09;;;;;;;;;;;14.40;55.50;;;;;;6273732;22;19899;-70
2021/11/04 13:08:35;;;;;;;;;;;14.40;55.70;;;;;;6272923;22;19911;-74
2021/11/04 13:11:10;;;;;;;;;;;14.30;56.00;;;;;;6273111;22;20648;-73
2021/11/04 13:13:44;;;;;;;;;;;14.40;56.40;;;;;;6273067;22;20283;-73
2021/11/04 13:16:23;;;;;;;;;;;14.30;56.20;;;;;;6274103;22;19910;-73
2021/11/04 13:18:48;;;;;;;;;;;14.30;56.30;;;;;;6275292;22;19923;-72
2021/11/04 13:21:25;;;;;;;;;;;14.30;56.60;;;;;;6273576;22;19903;-70
2021/11/04 13:23:51;;;;;;;;;;;14.20;56.40;;;;;;6275913;22;19903;-71
2021/11/04 13:26:18;;;;;;;;;;;14.20;56.40;;;;;;6275215;22;19941;-71
2021/11/04 13:28:43;;;;;;;;;;;14.10;55.70;;;;;;6275626;22;19899;-71
2021/11/04 13:31:13;;;;;;;;;;;14.10;55.90;;;;;;6275118;22;19905;-71
2021/11/04 13:33:40;;;;;;;;;;;14.00;56.00;;;;;;6275249;22;20283;-71
2021/11/04 13:36:13;;;;;;;;;;;13.90;55.30;;;;;;6275062;22;19906;-70
2021/11/04 13:38:56;;;;;;;;;;;13.90;55.40;;;;;;6272354;22;19969;-70
2021/11/04 13:41:29;;;;;;;;;;;13.80;55.10;;;;;;6275161;22;19910;-71
2021/11/04 13:43:57;;;;;;;;;;;13.70;54.60;;;;;;6275722;22;19906;-71
2021/11/04 13:46:23;;;;;;;;;;;13.70;54.80;;;;;;6273271;22;19903;-69
2021/11/04 13:48:53;;;;;;;;;;;13.60;55.10;;;;;;6275271;22;19906;-70
2021/11/04 13:51:27;;;;;;;;;;;13.60;55.70;;;;;;6275465;22;20372;-70
2021/11/04 13:54:05;;;;;;;;;;;13.50;55.30;;;;;;6273773;22;19899;-71
2021/11/04 13:56:31;;;;;;;;;;;13.50;55.00;;;;;;6273356;22;19974;-70
2021/11/04 13:58:56;;;;;;;;;;;13.50;55.40;;;;;;6273379;22;19968;-70
2021/11/04 14:01:22;;;;;;;;;;;13.50;55.30;;;;;;6275148;22;19917;-71
2021/11/04 14:04:04;;;;;;;;;;;13.50;55.30;;;;;;6275122;22;20209;-70
2021/11/04 14:06:39;;;;;;;;;;;13.40;55.40;;;;;;6274778;22;19934;-71
2021/11/04 14:09:04;;;;;;;;;;;13.40;55.50;;;;;;6275169;22;19903;-70
2021/11/04 14:11:30;;;;;;;;;;;13.40;55.70;;;;;;6275246;22;19910;-70
2021/11/04 14:14:00;;;;;;;;;;;13.40;56.00;;;;;;6273332;22;19911;-70
2021/11/04 14:16:30;;;;;;;;;;;13.40;56.30;;;;;;6274764;22;19899;-70
2021/11/04 14:18:57;;;;;;;;;;;13.50;56.80;;;;;;6273127;22;19906;-71